createdAt,value
2018-05-25T00:00:13.139Z,0
2018-05-25T00:01:15.127Z,0
2018-05-25T00:02:17.247Z,0
2018-05-25T00:03:19.259Z,0
2018-05-25T00:04:21.257Z,0
2018-05-25T00:05:23.370Z,0
2018-05-25T00:06:25.367Z,0
2018-05-25T00:07:27.367Z,0
2018-05-25T00:08:29.965Z,0
2018-05-25T00:09:31.966Z,0
2018-05-25T00:10:33.978Z,0
2018-05-25T00:11:36.180Z,0
2018-05-25T00:12:38.173Z,0
2018-05-25T00:13:40.441Z,0
2018-05-25T00:14:42.427Z,0
2018-05-25T00:15:44.744Z,0
2018-05-25T00:16:47.151Z,0
2018-05-25T00:17:49.149Z,0
2018-05-25T00:18:51.159Z,0
2018-05-25T00:19:53.149Z,0
2018-05-25T00:20:55.161Z,0
2018-05-25T00:21:57.152Z,0
2018-05-25T00:22:59.453Z,0
2018-05-25T00:24:01.467Z,0
2018-05-25T00:25:04.030Z,0
2018-05-25T00:26:06.040Z,0
2018-05-25T00:27:08.129Z,0
2018-05-25T00:28:10.135Z,0
2018-05-25T00:29:12.132Z,0
2018-05-25T00:30:14.405Z,0
2018-05-25T00:31:16.402Z,0
2018-05-25T00:32:18.462Z,0
2018-05-25T00:33:20.460Z,0
2018-05-25T00:34:22.741Z,0
2018-05-25T00:35:24.743Z,0
2018-05-25T00:36:26.735Z,0
2018-05-25T00:37:28.761Z,0
2018-05-25T00:38:30.759Z,0
2018-05-25T00:39:32.768Z,0
2018-05-25T00:40:34.772Z,0
2018-05-25T00:41:36.792Z,0
2018-05-25T00:42:38.804Z,0
2018-05-25T00:43:41.094Z,0
2018-05-25T00:44:43.095Z,0
2018-05-25T00:45:45.095Z,0
2018-05-25T00:46:47.082Z,0
2018-05-25T00:47:49.364Z,0
2018-05-25T00:48:51.366Z,0
2018-05-25T00:49:53.356Z,0
2018-05-25T00:50:55.369Z,0
2018-05-25T00:51:57.357Z,0
2018-05-25T00:52:59.633Z,0
2018-05-25T00:54:01.634Z,0
2018-05-25T00:55:03.630Z,0
2018-05-25T00:56:05.631Z,0
2018-05-25T00:57:07.619Z,0
2018-05-25T00:58:09.609Z,0
2018-05-25T00:59:11.611Z,0
2018-05-25T01:00:13.642Z,0
2018-05-25T01:01:15.930Z,0
2018-05-25T01:02:18.317Z,0
2018-05-25T01:03:20.330Z,0
2018-05-25T01:04:22.326Z,0
2018-05-25T01:05:24.310Z,0
2018-05-25T01:06:26.315Z,0
2018-05-25T01:07:28.307Z,0
2018-05-25T01:08:30.306Z,0
2018-05-25T01:09:32.290Z,0
2018-05-25T01:10:34.292Z,0
2018-05-25T01:11:36.296Z,0
2018-05-25T01:12:38.573Z,0
2018-05-25T01:13:40.598Z,0
2018-05-25T01:14:42.598Z,0
2018-05-25T01:15:44.613Z,0
2018-05-25T01:16:46.608Z,0
2018-05-25T01:17:48.626Z,0
2018-05-25T01:18:50.620Z,0
2018-05-25T01:19:52.619Z,0
2018-05-25T01:20:54.607Z,0
2018-05-25T01:21:56.636Z,0
2018-05-25T01:22:58.632Z,0
2018-05-25T01:24:01.003Z,0
2018-05-25T01:25:03.399Z,0
2018-05-25T01:26:05.393Z,0
2018-05-25T01:27:07.378Z,0
2018-05-25T01:28:09.793Z,0
2018-05-25T01:29:12.087Z,0
2018-05-25T01:30:14.455Z,0
2018-05-25T01:31:16.463Z,0
2018-05-25T01:32:18.459Z,0
2018-05-25T01:33:20.457Z,0
2018-05-25T01:34:22.461Z,0
2018-05-25T01:35:24.456Z,0
2018-05-25T01:36:26.453Z,0
2018-05-25T01:37:28.735Z,0
2018-05-25T01:38:30.730Z,0
2018-05-25T01:39:32.733Z,0
2018-05-25T01:40:34.728Z,0
2018-05-25T01:41:36.716Z,0
2018-05-25T01:42:38.715Z,0
2018-05-25T01:43:40.709Z,0
2018-05-25T01:44:42.703Z,0
2018-05-25T01:45:44.694Z,0
2018-05-25T01:46:46.698Z,0
2018-05-25T01:47:49.008Z,0
2018-05-25T01:48:50.993Z,0
2018-05-25T01:49:53.019Z,0
2018-05-25T01:50:55.009Z,0
2018-05-25T01:51:57.287Z,0
2018-05-25T01:52:59.281Z,0
2018-05-25T01:54:01.275Z,0
2018-05-25T01:55:03.288Z,0
2018-05-25T01:56:05.562Z,0
2018-05-25T01:57:07.561Z,0
2018-05-25T01:58:09.565Z,0
2018-05-25T01:59:11.855Z,0
2018-05-25T02:00:13.853Z,0
2018-05-25T02:01:16.134Z,0
2018-05-25T02:02:18.123Z,0
2018-05-25T02:03:20.179Z,0
2018-05-25T02:04:22.163Z,0
2018-05-25T02:05:24.162Z,0
2018-05-25T02:06:26.171Z,0
2018-05-25T02:07:28.164Z,0
2018-05-25T02:08:30.566Z,0
2018-05-25T02:09:32.572Z,0
2018-05-25T02:10:34.563Z,0
2018-05-25T02:11:36.559Z,0
2018-05-25T02:12:38.543Z,4
2018-05-25T02:13:40.548Z,4
2018-05-25T02:14:42.546Z,0
2018-05-25T02:15:44.543Z,0
2018-05-25T02:16:46.842Z,0
2018-05-25T02:17:48.838Z,4
2018-05-25T02:18:50.863Z,4
2018-05-25T02:19:52.860Z,4
2018-05-25T02:20:55.142Z,4
2018-05-25T02:21:57.146Z,4
2018-05-25T02:22:59.145Z,4
2018-05-25T02:24:01.175Z,8
2018-05-25T02:25:03.565Z,8
2018-05-25T02:26:05.601Z,8
2018-05-25T02:27:07.597Z,8
2018-05-25T02:28:09.596Z,8
2018-05-25T02:29:11.591Z,16
2018-05-25T02:30:13.584Z,16
2018-05-25T02:31:16.544Z,20
2018-05-25T02:32:18.935Z,16
2018-05-25T02:33:20.960Z,20
2018-05-25T02:34:22.950Z,24
2018-05-25T02:35:24.955Z,28
2018-05-25T02:36:26.958Z,28
2018-05-25T02:37:29.228Z,36
2018-05-25T02:38:31.556Z,40
2018-05-25T02:39:33.852Z,48
2018-05-25T02:40:35.853Z,52
2018-05-25T02:41:38.235Z,60
2018-05-25T02:42:40.242Z,64
2018-05-25T02:43:42.912Z,72
2018-05-25T02:44:44.926Z,84
2018-05-25T02:45:46.918Z,92
2018-05-25T02:46:48.919Z,100
2018-05-25T02:47:51.514Z,112
2018-05-25T02:48:53.510Z,124
2018-05-25T02:49:55.782Z,136
2018-05-25T02:50:57.781Z,152
2018-05-25T02:51:59.772Z,164
2018-05-25T02:53:01.769Z,176
2018-05-25T02:54:03.776Z,192
2018-05-25T02:55:06.041Z,212
2018-05-25T02:56:08.323Z,228
2018-05-25T02:57:10.697Z,248
2018-05-25T02:58:12.595Z,268
2018-05-25T02:59:14.973Z,292
2018-05-25T03:00:16.961Z,312
2018-05-25T03:01:19.254Z,336
2018-05-25T03:02:21.252Z,360
2018-05-25T03:03:23.234Z,384
2018-05-25T03:04:25.231Z,408
2018-05-25T03:05:27.615Z,436
2018-05-25T03:06:29.901Z,468
2018-05-25T03:07:31.905Z,496
2018-05-25T03:08:33.897Z,524
2018-05-25T03:09:35.891Z,560
2018-05-25T03:10:37.877Z,592
2018-05-25T03:11:39.865Z,628
2018-05-25T03:12:41.878Z,660
2018-05-25T03:13:44.252Z,688
2018-05-25T03:14:46.536Z,724
2018-05-25T03:15:48.539Z,764
2018-05-25T03:16:50.573Z,804
2018-05-25T03:17:52.513Z,844
2018-05-25T03:18:54.509Z,884
2018-05-25T03:19:56.517Z,928
2018-05-25T03:20:58.898Z,976
2018-05-25T03:22:00.883Z,1028
2018-05-25T03:23:03.260Z,1076
2018-05-25T03:24:05.553Z,1132
2018-05-25T03:25:07.554Z,1188
2018-05-25T03:26:09.589Z,1224
2018-05-25T03:27:11.944Z,1276
2018-05-25T03:28:14.241Z,1324
2018-05-25T03:29:16.235Z,1388
2018-05-25T03:30:18.224Z,1448
2018-05-25T03:31:20.223Z,1508
2018-05-25T03:32:22.598Z,1548
2018-05-25T03:33:24.605Z,1596
2018-05-25T03:34:26.589Z,1652
2018-05-25T03:35:28.879Z,1720
2018-05-25T03:36:31.472Z,1772
2018-05-25T03:37:33.742Z,1824
2018-05-25T03:38:35.737Z,1876
2018-05-25T03:39:37.740Z,1912
2018-05-25T03:40:39.741Z,1920
2018-05-25T03:41:41.742Z,1948
2018-05-25T03:42:43.758Z,1948
2018-05-25T03:43:46.356Z,1952
2018-05-25T03:44:49.027Z,1976
2018-05-25T03:45:51.009Z,2008
2018-05-25T03:46:53.002Z,2060
2018-05-25T03:47:55.004Z,2104
2018-05-25T03:48:56.995Z,2140
2018-05-25T03:49:59.276Z,2176
2018-05-25T03:51:01.272Z,2216
2018-05-25T03:52:03.279Z,2260
2018-05-25T03:53:05.259Z,2316
2018-05-25T03:54:07.252Z,2392
2018-05-25T03:55:09.252Z,2500
2018-05-25T03:56:11.529Z,2616
2018-05-25T03:57:13.524Z,2736
2018-05-25T03:58:15.520Z,2772
2018-05-25T03:59:18.197Z,2772
2018-05-25T04:00:20.574Z,2756
2018-05-25T04:01:22.571Z,2728
2018-05-25T04:02:24.559Z,2724
2018-05-25T04:03:26.554Z,2760
2018-05-25T04:04:28.558Z,2784
2018-05-25T04:05:30.841Z,2808
2018-05-25T04:06:32.835Z,2836
2018-05-25T04:07:34.832Z,2864
2018-05-25T04:08:36.816Z,2896
2018-05-25T04:09:38.814Z,2940
2018-05-25T04:10:40.812Z,2956
2018-05-25T04:11:42.810Z,2992
2018-05-25T04:12:44.800Z,3064
2018-05-25T04:13:47.183Z,3120
2018-05-25T04:14:49.167Z,3176
2018-05-25T04:15:51.551Z,3236
2018-05-25T04:16:53.554Z,3280
2018-05-25T04:17:55.550Z,3308
2018-05-25T04:18:57.542Z,3372
2018-05-25T04:19:59.544Z,3456
2018-05-25T04:21:01.533Z,3560
2018-05-25T04:22:03.534Z,3736
2018-05-25T04:23:05.526Z,3844
2018-05-25T04:24:07.521Z,4032
2018-05-25T04:25:09.515Z,4208
2018-05-25T04:26:11.504Z,4292
2018-05-25T04:27:13.493Z,4240
2018-05-25T04:28:15.493Z,4128
2018-05-25T04:29:17.490Z,4064
2018-05-25T04:30:19.483Z,4080
2018-05-25T04:31:21.475Z,4092
2018-05-25T04:32:23.473Z,4140
2018-05-25T04:33:26.052Z,4184
2018-05-25T04:34:28.057Z,4208
2018-05-25T04:35:30.056Z,4284
2018-05-25T04:36:32.461Z,4404
2018-05-25T04:37:34.743Z,4444
2018-05-25T04:38:36.729Z,4480
2018-05-25T04:39:38.731Z,4468
2018-05-25T04:40:41.122Z,4500
2018-05-25T04:41:43.122Z,4504
2018-05-25T04:42:45.111Z,4528
2018-05-25T04:43:47.104Z,4496
2018-05-25T04:44:49.112Z,4488
2018-05-25T04:45:51.114Z,4524
2018-05-25T04:46:53.408Z,4560
2018-05-25T04:47:55.403Z,4640
2018-05-25T04:48:57.398Z,4680
2018-05-25T04:49:59.383Z,4716
2018-05-25T04:51:01.958Z,4684
2018-05-25T04:52:03.967Z,4612
2018-05-25T04:53:05.965Z,4568
2018-05-25T04:54:07.962Z,4544
2018-05-25T04:55:10.239Z,4508
2018-05-25T04:56:12.232Z,4492
2018-05-25T04:57:14.227Z,4492
2018-05-25T04:58:16.215Z,4496
2018-05-25T04:59:18.228Z,4520
2018-05-25T05:00:20.218Z,4528
2018-05-25T05:01:22.216Z,4564
2018-05-25T05:02:24.211Z,4564
2018-05-25T05:03:26.215Z,4576
2018-05-25T05:04:28.219Z,4580
2018-05-25T05:05:30.212Z,4596
2018-05-25T05:06:32.591Z,4592
2018-05-25T05:07:34.588Z,4600
2018-05-25T05:08:36.582Z,4616
2018-05-25T05:09:38.587Z,4640
2018-05-25T05:10:40.587Z,4660
2018-05-25T05:11:42.590Z,4676
2018-05-25T05:12:44.873Z,4700
2018-05-25T05:13:46.866Z,4740
2018-05-25T05:14:49.156Z,4752
2018-05-25T05:15:51.581Z,4772
2018-05-25T05:16:53.593Z,4784
2018-05-25T05:17:55.577Z,4808
2018-05-25T05:18:57.573Z,4840
2018-05-25T05:19:59.853Z,4856
2018-05-25T05:21:02.524Z,4880
2018-05-25T05:22:05.568Z,4904
2018-05-25T05:23:07.581Z,4912
2018-05-25T05:24:09.560Z,4928
2018-05-25T05:25:11.568Z,4956
2018-05-25T05:26:13.556Z,4976
2018-05-25T05:27:15.558Z,5000
2018-05-25T05:28:17.550Z,5020
2018-05-25T05:29:19.549Z,5060
2018-05-25T05:30:21.550Z,5080
2018-05-25T05:31:23.848Z,5104
2018-05-25T05:32:26.242Z,5112
2018-05-25T05:33:28.236Z,5140
2018-05-25T05:34:30.231Z,5152
2018-05-25T05:35:32.230Z,5176
2018-05-25T05:36:34.236Z,5196
2018-05-25T05:37:36.521Z,5208
2018-05-25T05:38:38.820Z,5224
2018-05-25T05:39:40.833Z,5240
2018-05-25T05:40:42.831Z,5260
2018-05-25T05:41:44.831Z,5292
2018-05-25T05:42:46.827Z,5308
2018-05-25T05:43:48.824Z,5320
2018-05-25T05:44:50.822Z,5344
2018-05-25T05:45:52.812Z,5356
2018-05-25T05:46:54.823Z,5364
2018-05-25T05:47:56.823Z,5388
2018-05-25T05:48:58.817Z,5404
2018-05-25T05:50:00.820Z,5432
2018-05-25T05:51:02.825Z,5448
2018-05-25T05:52:05.106Z,5472
2018-05-25T05:53:07.110Z,5500
2018-05-25T05:54:09.109Z,5536
2018-05-25T05:55:11.120Z,5568
2018-05-25T05:56:13.125Z,5584
2018-05-25T05:57:15.416Z,5604
2018-05-25T05:58:17.421Z,5640
2018-05-25T05:59:19.712Z,5652
2018-05-25T06:00:22.011Z,5672
2018-05-25T06:01:24.007Z,5692
2018-05-25T06:02:26.289Z,5724
2018-05-25T06:03:28.284Z,5744
2018-05-25T06:04:30.572Z,5788
2018-05-25T06:05:32.554Z,5828
2018-05-25T06:06:34.558Z,5844
2018-05-25T06:07:36.861Z,5868
2018-05-25T06:08:38.875Z,5888
2018-05-25T06:09:40.871Z,5916
2018-05-25T06:10:42.874Z,5936
2018-05-25T06:11:44.877Z,5952
2018-05-25T06:12:46.885Z,5988
2018-05-25T06:13:49.167Z,6000
2018-05-25T06:14:51.161Z,6036
2018-05-25T06:15:53.157Z,6056
2018-05-25T06:16:55.434Z,6060
2018-05-25T06:17:57.440Z,6096
2018-05-25T06:18:59.442Z,6124
2018-05-25T06:20:01.836Z,6140
2018-05-25T06:21:04.099Z,6148
2018-05-25T06:22:06.476Z,6180
2018-05-25T06:23:08.488Z,6212
2018-05-25T06:24:10.758Z,6224
2018-05-25T06:25:12.766Z,6256
2018-05-25T06:26:15.479Z,6260
2018-05-25T06:27:17.480Z,6284
2018-05-25T06:28:19.489Z,6340
2018-05-25T06:29:21.479Z,6360
2018-05-25T06:30:23.487Z,6380
2018-05-25T06:31:25.769Z,6424
2018-05-25T06:32:28.076Z,6452
2018-05-25T06:33:30.461Z,6484
2018-05-25T06:34:32.838Z,6520
2018-05-25T06:35:34.848Z,6540
2018-05-25T06:36:36.853Z,6552
2018-05-25T06:37:38.852Z,6596
2018-05-25T06:38:40.842Z,6620
2018-05-25T06:39:42.836Z,6636
2018-05-25T06:40:44.850Z,6664
2018-05-25T06:41:47.156Z,6692
2018-05-25T06:42:49.558Z,6716
2018-05-25T06:43:51.938Z,6744
2018-05-25T06:44:53.942Z,6760
2018-05-25T06:45:56.317Z,6780
2018-05-25T06:46:58.315Z,6796
2018-05-25T06:48:00.614Z,6828
2018-05-25T06:49:02.616Z,6860
2018-05-25T06:50:04.606Z,6876
2018-05-25T06:51:06.613Z,6892
2018-05-25T06:52:08.896Z,6908
2018-05-25T06:53:11.178Z,6928
2018-05-25T06:54:13.172Z,6952
2018-05-25T06:55:15.177Z,6980
2018-05-25T06:56:17.173Z,6992
2018-05-25T06:57:19.175Z,7004
2018-05-25T06:58:21.179Z,7000
2018-05-25T06:59:23.183Z,7040
2018-05-25T07:00:25.483Z,7068
2018-05-25T07:01:27.475Z,7084
2018-05-25T07:02:29.751Z,7120
2018-05-25T07:03:31.752Z,7148
2018-05-25T07:04:33.754Z,7168
2018-05-25T07:05:36.433Z,7188
2018-05-25T07:06:38.438Z,7212
2018-05-25T07:07:40.838Z,7252
2018-05-25T07:08:42.834Z,7300
2018-05-25T07:09:44.832Z,7292
2018-05-25T07:10:46.843Z,7284
2018-05-25T07:11:48.830Z,7316
2018-05-25T07:12:50.833Z,7360
2018-05-25T07:13:52.841Z,7416
2018-05-25T07:14:54.836Z,7456
2018-05-25T07:15:56.842Z,7500
2018-05-25T07:16:59.185Z,7560
2018-05-25T07:18:01.128Z,7592
2018-05-25T07:19:03.806Z,7648
2018-05-25T07:20:05.818Z,7668
2018-05-25T07:21:08.559Z,7704
2018-05-25T07:22:10.957Z,7752
2018-05-25T07:23:12.949Z,7784
2018-05-25T07:24:14.964Z,7812
2018-05-25T07:25:16.971Z,7844
2018-05-25T07:26:19.000Z,7860
2018-05-25T07:27:21.008Z,7904
2018-05-25T07:28:22.995Z,7952
2018-05-25T07:29:25.024Z,8016
2018-05-25T07:30:27.016Z,8024
2018-05-25T07:31:29.033Z,8060
2018-05-25T07:32:31.043Z,8116
2018-05-25T07:33:33.061Z,8156
2018-05-25T07:34:35.067Z,8208
2018-05-25T07:35:37.069Z,8256
2018-05-25T07:36:39.363Z,8304
2018-05-25T07:37:41.659Z,8344
2018-05-25T07:38:43.663Z,8360
2018-05-25T07:39:45.961Z,8400
2018-05-25T07:40:47.970Z,8428
2018-05-25T07:41:49.987Z,8492
2018-05-25T07:42:51.983Z,8528
2018-05-25T07:43:54.016Z,8564
2018-05-25T07:44:56.007Z,8596
2018-05-25T07:45:58.029Z,8672
2018-05-25T07:47:00.318Z,8732
2018-05-25T07:48:02.616Z,8792
2018-05-25T07:49:04.619Z,8832
2018-05-25T07:50:06.627Z,8884
2018-05-25T07:51:08.648Z,8928
2018-05-25T07:52:10.945Z,8972
2018-05-25T07:53:12.979Z,9012
2018-05-25T07:54:15.053Z,9060
2018-05-25T07:55:17.375Z,9100
2018-05-25T07:56:19.397Z,9160
2018-05-25T07:57:21.690Z,9188
2018-05-25T07:58:23.746Z,9232
2018-05-25T07:59:25.749Z,9292
2018-05-25T08:00:27.752Z,9336
2018-05-25T08:01:29.775Z,9384
2018-05-25T08:02:31.775Z,9436
2018-05-25T08:03:34.118Z,9472
2018-05-25T08:04:36.136Z,9516
2018-05-25T08:05:38.155Z,9576
2018-05-25T08:06:40.169Z,9624
2018-05-25T08:07:42.868Z,9680
2018-05-25T08:08:44.890Z,9720
2018-05-25T08:09:46.897Z,9752
2018-05-25T08:10:48.928Z,9808
2018-05-25T08:11:50.950Z,9880
2018-05-25T08:12:52.952Z,9912
2018-05-25T08:13:54.982Z,9972
2018-05-25T08:14:57.379Z,10036
2018-05-25T08:15:59.423Z,10108
2018-05-25T08:17:01.440Z,10168
2018-05-25T08:18:03.535Z,10220
2018-05-25T08:19:05.817Z,10288
2018-05-25T08:20:07.824Z,10384
2018-05-25T08:21:09.835Z,10744
2018-05-25T08:22:11.859Z,19232
2018-05-25T08:23:13.861Z,28608
2018-05-25T08:24:15.935Z,29952
2018-05-25T08:25:18.337Z,32256
2018-05-25T08:26:20.391Z,26688
2018-05-25T08:27:22.404Z,31232
2018-05-25T08:28:24.713Z,29856
2018-05-25T08:29:26.755Z,33792
2018-05-25T08:30:28.768Z,32576
2018-05-25T08:31:30.857Z,37792
2018-05-25T08:32:32.863Z,34496
2018-05-25T08:33:34.872Z,34272
2018-05-25T08:34:36.937Z,28736
2018-05-25T08:35:38.944Z,54880
2018-05-25T08:36:40.999Z,88416
2018-05-25T08:37:43.028Z,92736
2018-05-25T08:38:45.040Z,91392
2018-05-25T08:39:47.454Z,95488
2018-05-25T08:40:49.487Z,93312
2018-05-25T08:41:51.526Z,100928
2018-05-25T08:42:53.540Z,101184
2018-05-25T08:43:55.833Z,94784
2018-05-25T08:44:57.843Z,88256
2018-05-25T08:45:59.864Z,86464
2018-05-25T08:47:02.213Z,84928
2018-05-25T08:48:04.219Z,88128
2018-05-25T08:49:06.295Z,90752
2018-05-25T08:50:08.357Z,77312
2018-05-25T08:51:10.769Z,70272
2018-05-25T08:52:12.830Z,79552
2018-05-25T08:53:14.846Z,88320
2018-05-25T08:54:16.856Z,102080
2018-05-25T08:55:18.943Z,102656
2018-05-25T08:56:20.940Z,91488
2018-05-25T08:57:22.956Z,82528
2018-05-25T08:58:25.290Z,82048
2018-05-25T08:59:27.305Z,85984
2018-05-25T09:00:29.338Z,82336
2018-05-25T09:01:31.429Z,78560
2018-05-25T09:02:33.360Z,84768
2018-05-25T09:03:35.700Z,87200
2018-05-25T09:04:37.750Z,82112
2018-05-25T09:05:39.754Z,80160
2018-05-25T09:06:41.808Z,81248
2018-05-25T09:07:43.830Z,83776
2018-05-25T09:08:45.835Z,81600
2018-05-25T09:09:47.906Z,84480
2018-05-25T09:10:49.931Z,86496
2018-05-25T09:11:51.949Z,90624
2018-05-25T09:12:53.963Z,99744
2018-05-25T09:13:56.092Z,97728
2018-05-25T09:14:58.090Z,93824
2018-05-25T09:16:00.101Z,101568
2018-05-25T09:17:02.121Z,96096
2018-05-25T09:18:04.433Z,93088
2018-05-25T09:19:06.721Z,104224
2018-05-25T09:20:08.737Z,111232
2018-05-25T09:21:10.752Z,113632
2018-05-25T09:22:12.786Z,116160
2018-05-25T09:23:14.793Z,110816
2018-05-25T09:24:17.215Z,111072
2018-05-25T09:25:19.224Z,111968
2018-05-25T09:26:21.276Z,110912
2018-05-25T09:27:23.259Z,108736
2018-05-25T09:28:25.276Z,105920
2018-05-25T09:29:27.579Z,103616
2018-05-25T09:30:29.874Z,97792
2018-05-25T09:31:31.869Z,92064
2018-05-25T09:32:33.989Z,91584
2018-05-25T09:33:36.000Z,94080
2018-05-25T09:34:38.307Z,100064
2018-05-25T09:35:40.318Z,104032
2018-05-25T09:36:42.335Z,102016
2018-05-25T09:37:44.637Z,96864
2018-05-25T09:38:46.671Z,91296
2018-05-25T09:39:48.993Z,95360
2018-05-25T09:40:51.753Z,104224
2018-05-25T09:41:54.152Z,102400
2018-05-25T09:42:56.482Z,98912
2018-05-25T09:43:58.494Z,101632
2018-05-25T09:45:00.517Z,108320
2018-05-25T09:46:02.521Z,114976
2018-05-25T09:47:04.874Z,115936
2018-05-25T09:48:06.927Z,106016
2018-05-25T09:49:08.964Z,97408
2018-05-25T09:50:10.983Z,102592
2018-05-25T09:51:13.018Z,106304
2018-05-25T09:52:15.087Z,103136
2018-05-25T09:53:17.111Z,110784
2018-05-25T09:54:19.129Z,124800
2018-05-25T09:55:21.163Z,131328
2018-05-25T09:56:23.174Z,123136
2018-05-25T09:57:25.214Z,119904
2018-05-25T09:58:27.233Z,124000
2018-05-25T09:59:29.544Z,125408
2018-05-25T10:00:31.840Z,119616
2018-05-25T10:01:33.854Z,113632
2018-05-25T10:02:35.875Z,116768
2018-05-25T10:03:37.903Z,123136
2018-05-25T10:04:40.213Z,125600
2018-05-25T10:05:42.262Z,133792
2018-05-25T10:06:44.274Z,142144
2018-05-25T10:07:46.869Z,131808
2018-05-25T10:08:49.189Z,123776
2018-05-25T10:09:51.210Z,124448
2018-05-25T10:10:53.276Z,123872
2018-05-25T10:11:55.299Z,115776
2018-05-25T10:12:57.308Z,116128
2018-05-25T10:13:59.338Z,121024
2018-05-25T10:15:01.412Z,113824
2018-05-25T10:16:03.440Z,102400
2018-05-25T10:17:05.469Z,105088
2018-05-25T10:18:07.489Z,115328
2018-05-25T10:19:10.058Z,116864
2018-05-25T10:20:12.092Z,116576
2018-05-25T10:21:14.102Z,119136
2018-05-25T10:22:16.525Z,128992
2018-05-25T10:23:18.536Z,135712
2018-05-25T10:24:20.834Z,137088
2018-05-25T10:25:23.143Z,133568
2018-05-25T10:26:25.158Z,130144
2018-05-25T10:27:27.170Z,122080
2018-05-25T10:28:29.222Z,119360
2018-05-25T10:29:31.231Z,125408
2018-05-25T10:30:33.257Z,120992
2018-05-25T10:31:35.273Z,116608
2018-05-25T10:32:37.738Z,116768
2018-05-25T10:33:40.046Z,114816
2018-05-25T10:34:42.054Z,112192
2018-05-25T10:35:44.363Z,114720
2018-05-25T10:36:46.381Z,112704
2018-05-25T10:37:48.409Z,106464
2018-05-25T10:38:50.727Z,109120
2018-05-25T10:39:52.739Z,111456
2018-05-25T10:40:54.883Z,105408
2018-05-25T10:41:56.870Z,111520
2018-05-25T10:42:58.888Z,113856
2018-05-25T10:44:00.917Z,122336
2018-05-25T10:45:03.223Z,127040
2018-05-25T10:46:05.246Z,135040
2018-05-25T10:47:07.259Z,141600
2018-05-25T10:48:09.368Z,141888
2018-05-25T10:49:11.392Z,133248
2018-05-25T10:50:13.695Z,131008
2018-05-25T10:51:15.708Z,138816
2018-05-25T10:52:17.743Z,148224
2018-05-25T10:53:19.847Z,137568
2018-05-25T10:54:21.879Z,123328
2018-05-25T10:55:24.176Z,115488
2018-05-25T10:56:26.199Z,112960
2018-05-25T10:57:28.229Z,116640
2018-05-25T10:58:30.330Z,119776
2018-05-25T10:59:32.349Z,120160
2018-05-25T11:00:34.389Z,122368
2018-05-25T11:01:36.394Z,125568
2018-05-25T11:02:38.414Z,121024
2018-05-25T11:03:40.582Z,113696
2018-05-25T11:04:42.564Z,112032
2018-05-25T11:05:44.590Z,125376
2018-05-25T11:06:46.616Z,130400
2018-05-25T11:07:48.644Z,122784
2018-05-25T11:08:50.745Z,125664
2018-05-25T11:09:53.105Z,132384
2018-05-25T11:10:55.091Z,127648
2018-05-25T11:11:57.491Z,121056
2018-05-25T11:13:00.303Z,123584
2018-05-25T11:14:02.325Z,126976
2018-05-25T11:15:04.354Z,125568
2018-05-25T11:16:06.945Z,131104
2018-05-25T11:17:09.056Z,130976
2018-05-25T11:18:11.071Z,132192
2018-05-25T11:19:13.399Z,136480
2018-05-25T11:20:15.413Z,136768
2018-05-25T11:21:17.434Z,131776
2018-05-25T11:22:19.463Z,126816
2018-05-25T11:23:21.484Z,125504
2018-05-25T11:24:23.504Z,128928
2018-05-25T11:25:25.522Z,132320
2018-05-25T11:26:27.546Z,130784
2018-05-25T11:27:29.584Z,127200
2018-05-25T11:28:31.597Z,134688
2018-05-25T11:29:33.630Z,142112
2018-05-25T11:30:35.651Z,136640
2018-05-25T11:31:37.664Z,126144
2018-05-25T11:32:39.689Z,135008
2018-05-25T11:33:41.720Z,141504
2018-05-25T11:34:43.737Z,136480
2018-05-25T11:35:45.764Z,133152
2018-05-25T11:36:47.769Z,136480
2018-05-25T11:37:49.811Z,136512
2018-05-25T11:38:52.166Z,132704
2018-05-25T11:39:54.467Z,119424
2018-05-25T11:40:56.488Z,112320
2018-05-25T11:41:58.502Z,117632
2018-05-25T11:43:00.509Z,123360
2018-05-25T11:44:02.544Z,120512
2018-05-25T11:45:04.570Z,123712
2018-05-25T11:46:06.902Z,141280
2018-05-25T11:47:09.205Z,144928
2018-05-25T11:48:11.222Z,132384
2018-05-25T11:49:13.246Z,128384
2018-05-25T11:50:15.264Z,134848
2018-05-25T11:51:17.291Z,148640
2018-05-25T11:52:19.323Z,155008
2018-05-25T11:53:21.338Z,140128
2018-05-25T11:54:23.695Z,122336
2018-05-25T11:55:25.689Z,129760
2018-05-25T11:56:27.995Z,135040
2018-05-25T11:57:30.014Z,135328
2018-05-25T11:58:32.035Z,138784
2018-05-25T11:59:34.341Z,138688
2018-05-25T12:00:36.357Z,133248
2018-05-25T12:01:38.377Z,127520
2018-05-25T12:02:40.411Z,141984
2018-05-25T12:03:42.699Z,153536
2018-05-25T12:04:45.113Z,146816
2018-05-25T12:05:47.412Z,132928
2018-05-25T12:06:49.771Z,121472
2018-05-25T12:07:54.989Z,120000
2018-05-25T12:08:57.388Z,121856
2018-05-25T12:09:59.437Z,137696
2018-05-25T12:11:01.477Z,152096
2018-05-25T12:12:03.470Z,137760
2018-05-25T12:13:05.498Z,122304
2018-05-25T12:14:07.909Z,111936
2018-05-25T12:15:10.336Z,114880
2018-05-25T12:16:12.368Z,122752
2018-05-25T12:17:14.679Z,129728
2018-05-25T12:18:16.716Z,130688
2018-05-25T12:19:19.326Z,129728
2018-05-25T12:20:21.362Z,124192
2018-05-25T12:21:23.386Z,124544
2018-05-25T12:22:26.089Z,131136
2018-05-25T12:23:28.092Z,131072
2018-05-25T12:24:30.130Z,132544
2018-05-25T12:25:32.835Z,125664
2018-05-25T12:26:34.865Z,117536
2018-05-25T12:27:36.920Z,113312
2018-05-25T12:28:38.944Z,108000
2018-05-25T12:29:40.971Z,104416
2018-05-25T12:30:43.033Z,109248
2018-05-25T12:31:45.061Z,118816
2018-05-25T12:32:47.095Z,129504
2018-05-25T12:33:49.121Z,131840
2018-05-25T12:34:51.135Z,119488
2018-05-25T12:35:53.173Z,116288
2018-05-25T12:36:55.203Z,116448
2018-05-25T12:37:57.220Z,107520
2018-05-25T12:38:59.261Z,110496
2018-05-25T12:40:01.296Z,117696
2018-05-25T12:41:03.332Z,121696
2018-05-25T12:42:05.366Z,119968
2018-05-25T12:43:07.393Z,119296
2018-05-25T12:44:09.421Z,121536
2018-05-25T12:45:11.435Z,121344
2018-05-25T12:46:13.454Z,120480
2018-05-25T12:47:16.256Z,116384
2018-05-25T12:48:18.291Z,122432
2018-05-25T12:49:20.313Z,121664
2018-05-25T12:50:22.380Z,118400
2018-05-25T12:51:24.393Z,121408
2018-05-25T12:52:26.427Z,114976
2018-05-25T12:53:28.447Z,110432
2018-05-25T12:54:30.467Z,113600
2018-05-25T12:55:32.483Z,109504
2018-05-25T12:56:34.515Z,121728
2018-05-25T12:57:36.544Z,117600
2018-05-25T12:58:38.965Z,110496
2018-05-25T12:59:40.990Z,108832
2018-05-25T13:00:43.012Z,114144
2018-05-25T13:01:45.034Z,113536
2018-05-25T13:02:47.053Z,112608
2018-05-25T13:03:49.074Z,119392
2018-05-25T13:04:51.107Z,115040
2018-05-25T13:05:53.124Z,106816
2018-05-25T13:06:55.466Z,106048
2018-05-25T13:07:57.488Z,109184
2018-05-25T13:08:59.508Z,110048
2018-05-25T13:10:01.526Z,113472
2018-05-25T13:11:03.983Z,108800
2018-05-25T13:12:05.983Z,104288
2018-05-25T13:13:08.051Z,99936
2018-05-25T13:14:10.077Z,93280
2018-05-25T13:15:12.098Z,95840
2018-05-25T13:16:14.455Z,98816
2018-05-25T13:17:16.770Z,90976
2018-05-25T13:18:19.180Z,92928
2018-05-25T13:19:21.207Z,95616
2018-05-25T13:20:23.231Z,103328
2018-05-25T13:21:25.257Z,104736
2018-05-25T13:22:27.278Z,105440
2018-05-25T13:23:29.329Z,107872
2018-05-25T13:24:31.340Z,108576
2018-05-25T13:25:33.667Z,101632
2018-05-25T13:26:36.073Z,97248
2018-05-25T13:27:38.385Z,107584
2018-05-25T13:28:40.718Z,121088
2018-05-25T13:29:42.743Z,132288
2018-05-25T13:30:45.042Z,136128
2018-05-25T13:31:47.070Z,127840
2018-05-25T13:32:49.088Z,122688
2018-05-25T13:33:51.138Z,131712
2018-05-25T13:34:53.440Z,136672
2018-05-25T13:35:55.478Z,128992
2018-05-25T13:36:57.818Z,109696
2018-05-25T13:38:00.138Z,97024
2018-05-25T13:39:02.587Z,90272
2018-05-25T13:40:04.920Z,79392
2018-05-25T13:41:06.946Z,94880
2018-05-25T13:42:09.030Z,99200
2018-05-25T13:43:11.060Z,97344
2018-05-25T13:44:13.091Z,93056